Time;durP1;ratioP1;P1;durP2;ratioP2;P2;SDS_P1;SDS_P2;PMS_P1;PMS_P2;Temp;Humidity;BMP_temperature;BMP_pressure;BME280_temperature;BME280_humidity;BME280_pressure;Samples;Min_cycle;Max_cycle;Signal;HPM_P1;HPM_P2
2021/03/14 00:00:55;;;;;;;3.05;0.90;;;;;;;;;;5005092;28;20263;-84
2021/03/14 00:03:21;;;;;;;2.28;1.00;;;;;;;;;;4996494;28;20254;-82
2021/03/14 00:05:49;;;;;;;1.75;0.90;;;;;;;;;;5000802;28;20195;-83
2021/03/14 00:08:15;;;;;;;4.13;1.00;;;;;;;;;;5000174;28;20255;-82
2021/03/14 00:10:42;;;;;;;1.60;1.40;;;;;;;;;;4998433;28;20203;-82
2021/03/14 00:13:09;;;;;;;1.20;0.88;;;;;;;;;;4989456;28;20214;-82
2021/03/14 00:15:35;;;;;;;3.55;1.13;;;;;;;;;;5003738;28;20190;-81
2021/03/14 00:18:01;;;;;;;2.20;1.10;;;;;;;;;;5001746;28;20187;-83
2021/03/14 00:20:27;;;;;;;4.10;1.23;;;;;;;;;;4998927;28;20458;-79
2021/03/14 00:22:53;;;;;;;4.00;1.10;;;;;;;;;;4993420;28;20239;-83
2021/03/14 00:25:19;;;;;;;3.43;1.40;;;;;;;;;;4986904;28;20187;-80
2021/03/14 00:27:45;;;;;;;7.65;1.60;;;;;;;;;;4998120;28;20419;-82
2021/03/14 00:30:13;;;;;;;2.22;1.40;;;;;;;;;;4996275;28;20264;-81
2021/03/14 00:32:39;;;;;;;3.55;1.90;;;;;;;;;;4984031;28;20206;-81
2021/03/14 00:35:06;;;;;;;2.17;1.05;;;;;;;;;;5001637;28;20190;-81
2021/03/14 00:37:32;;;;;;;2.58;1.35;;;;;;;;;;5006215;28;20190;-82
2021/03/14 00:39:58;;;;;;;3.30;1.40;;;;;;;;;;5000063;28;20222;-82
2021/03/14 00:42:24;;;;;;;2.08;1.45;;;;;;;;;;4996007;28;20183;-82
2021/03/14 00:44:50;;;;;;;4.55;2.25;;;;;;;;;;4997211;28;20203;-82
2021/03/14 00:47:16;;;;;;;4.10;1.33;;;;;;;;;;5008753;28;20183;-81
2021/03/14 00:49:42;;;;;;;4.00;1.98;;;;;;;;;;4996766;28;20561;-82
2021/03/14 00:52:08;;;;;;;3.53;1.70;;;;;;;;;;4998820;28;20241;-81
2021/03/14 00:54:35;;;;;;;4.13;1.67;;;;;;;;;;4998367;28;20163;-82
2021/03/14 00:57:01;;;;;;;4.10;1.45;;;;;;;;;;4982829;28;21210;-80
2021/03/14 00:59:27;;;;;;;4.80;1.98;;;;;;;;;;4998648;28;20184;-82
2021/03/14 01:01:53;;;;;;;4.65;1.70;;;;;;;;;;4997822;28;20574;-81
2021/03/14 01:04:19;;;;;;;3.60;1.30;;;;;;;;;;4997996;28;20178;-81
2021/03/14 01:06:45;;;;;;;3.28;1.40;;;;;;;;;;4997638;28;20542;-84
2021/03/14 01:09:11;;;;;;;8.07;3.42;;;;;;;;;;4995508;28;20671;-81
2021/03/14 01:11:37;;;;;;;5.90;1.70;;;;;;;;;;4983530;28;20273;-80
2021/03/14 01:14:03;;;;;;;6.45;1.75;;;;;;;;;;5001497;28;20187;-82
2021/03/14 01:16:29;;;;;;;7.30;1.98;;;;;;;;;;4995205;28;20179;-82
2021/03/14 01:18:55;;;;;;;8.48;1.77;;;;;;;;;;4999119;28;20262;-81
2021/03/14 01:21:21;;;;;;;4.25;1.60;;;;;;;;;;4983347;28;20243;-82
2021/03/14 01:23:47;;;;;;;3.63;1.35;;;;;;;;;;4995489;28;20202;-82
2021/03/14 01:26:13;;;;;;;4.03;1.50;;;;;;;;;;4999278;28;20187;-82
2021/03/14 01:28:39;;;;;;;6.20;1.48;;;;;;;;;;4996699;28;20274;-81
2021/03/14 01:31:06;;;;;;;5.07;1.88;;;;;;;;;;4990080;28;20254;-82
2021/03/14 01:33:31;;;;;;;2.72;1.65;;;;;;;;;;4997716;28;20179;-82
2021/03/14 01:35:57;;;;;;;2.97;1.33;;;;;;;;;;4995092;28;20184;-82
2021/03/14 01:38:23;;;;;;;6.40;1.60;;;;;;;;;;4997824;28;20326;-82
2021/03/14 01:40:49;;;;;;;4.63;1.13;;;;;;;;;;4996940;28;20463;-82
2021/03/14 01:43:15;;;;;;;5.10;1.83;;;;;;;;;;4987211;28;20187;-82
2021/03/14 01:45:41;;;;;;;3.72;1.40;;;;;;;;;;4997043;28;20219;-82
2021/03/14 01:48:08;;;;;;;5.53;1.50;;;;;;;;;;4993641;28;20222;-81
2021/03/14 01:50:37;;;;;;;3.22;1.73;;;;;;;;;;4997008;28;20207;-83
2021/03/14 01:53:03;;;;;;;6.63;1.63;;;;;;;;;;4995368;28;20180;-83
2021/03/14 01:55:29;;;;;;;7.05;1.77;;;;;;;;;;5002146;28;20219;-82
2021/03/14 01:57:55;;;;;;;8.00;1.40;;;;;;;;;;4998422;28;20242;-82
2021/03/14 02:00:26;;;;;;;6.72;1.75;;;;;;;;;;4995538;28;20187;-81
2021/03/14 02:02:52;;;;;;;8.88;2.33;;;;;;;;;;4996676;28;20215;-84
2021/03/14 02:05:19;;;;;;;8.35;1.58;;;;;;;;;;4981200;28;20731;-80
2021/03/14 02:07:46;;;;;;;4.35;1.65;;;;;;;;;;4995439;28;20214;-82
2021/03/14 02:10:14;;;;;;;6.05;1.88;;;;;;;;;;4987898;28;20206;-84
2021/03/14 02:12:43;;;;;;;13.70;2.03;;;;;;;;;;4996274;28;20235;-83
2021/03/14 02:15:09;;;;;;;5.20;1.88;;;;;;;;;;4995053;28;20628;-85
2021/03/14 02:17:38;;;;;;;3.42;1.40;;;;;;;;;;4996310;28;20192;-82
2021/03/14 02:20:11;;;;;;;4.70;2.00;;;;;;;;;;4995225;28;20243;-82
2021/03/14 02:22:39;;;;;;;2.55;1.38;;;;;;;;;;4977736;28;20227;-82
2021/03/14 02:25:11;;;;;;;7.32;3.58;;;;;;;;;;4989017;28;20214;-82
2021/03/14 02:27:37;;;;;;;4.88;1.90;;;;;;;;;;4995909;28;20233;-82
2021/03/14 02:30:04;;;;;;;2.08;1.20;;;;;;;;;;4995150;28;20222;-83
2021/03/14 02:32:33;;;;;;;2.63;1.27;;;;;;;;;;4997165;28;20180;-83
2021/03/14 02:35:01;;;;;;;6.60;1.55;;;;;;;;;;4999105;28;20194;-82
2021/03/14 02:37:27;;;;;;;11.75;2.00;;;;;;;;;;4983323;28;20242;-80
2021/03/14 02:39:57;;;;;;;4.03;1.30;;;;;;;;;;4993905;28;20206;-82
2021/03/14 02:42:27;;;;;;;7.30;1.83;;;;;;;;;;4994249;28;20266;-83
2021/03/14 02:44:54;;;;;;;5.95;2.22;;;;;;;;;;4983015;28;20285;-83
2021/03/14 02:47:24;;;;;;;5.43;1.77;;;;;;;;;;4997299;28;20683;-83
2021/03/14 02:49:50;;;;;;;5.20;1.67;;;;;;;;;;5001305;28;20314;-83
2021/03/14 02:52:18;;;;;;;11.80;2.47;;;;;;;;;;5000277;28;20168;-86
2021/03/14 02:54:46;;;;;;;5.97;1.80;;;;;;;;;;5000533;28;20175;-79
2021/03/14 02:57:12;;;;;;;4.63;2.20;;;;;;;;;;4986168;28;20221;-84
2021/03/14 02:59:40;;;;;;;5.78;2.03;;;;;;;;;;4999126;28;20210;-82
2021/03/14 03:02:06;;;;;;;9.10;2.45;;;;;;;;;;5009227;28;20186;-86
2021/03/14 03:04:32;;;;;;;5.65;2.03;;;;;;;;;;5002147;28;20187;-83
2021/03/14 03:06:59;;;;;;;5.78;1.80;;;;;;;;;;5001835;28;20619;-83
2021/03/14 03:09:26;;;;;;;5.50;2.30;;;;;;;;;;4996885;28;20194;-82
2021/03/14 03:11:53;;;;;;;9.80;2.85;;;;;;;;;;4997888;28;20179;-82
2021/03/14 03:14:20;;;;;;;7.25;1.98;;;;;;;;;;4983939;28;20187;-84
2021/03/14 03:16:51;;;;;;;7.30;2.20;;;;;;;;;;4999024;28;20204;-83
2021/03/14 03:19:17;;;;;;;5.93;2.40;;;;;;;;;;4999644;28;20536;-84
2021/03/14 03:21:44;;;;;;;3.40;1.42;;;;;;;;;;4999942;28;20175;-83
2021/03/14 03:24:10;;;;;;;6.82;2.10;;;;;;;;;;4986140;28;20214;-85
2021/03/14 03:26:41;;;;;;;5.80;2.10;;;;;;;;;;5000455;28;20203;-82
2021/03/14 03:29:07;;;;;;;5.10;1.88;;;;;;;;;;5014104;28;20179;-84
2021/03/14 03:31:33;;;;;;;5.32;1.85;;;;;;;;;;4998506;28;20199;-82
2021/03/14 03:33:59;;;;;;;11.80;3.10;;;;;;;;;;4993177;28;20257;-84
2021/03/14 03:36:25;;;;;;;9.13;1.98;;;;;;;;;;5002745;28;20190;-82
2021/03/14 03:38:51;;;;;;;7.00;2.10;;;;;;;;;;4999023;28;20246;-82
2021/03/14 03:41:17;;;;;;;10.57;2.25;;;;;;;;;;4992150;28;20191;-80
2021/03/14 03:43:45;;;;;;;6.18;2.75;;;;;;;;;;4998132;28;20222;-84
2021/03/14 03:46:12;;;;;;;9.32;3.08;;;;;;;;;;4999853;28;20226;-80
2021/03/14 03:48:46;;;;;;;9.85;2.58;;;;;;;;;;5002943;28;20223;-78
2021/03/14 03:51:14;;;;;;;9.05;2.10;;;;;;;;;;4997221;28;20242;-84
2021/03/14 03:53:41;;;;;;;12.98;3.28;;;;;;;;;;4987136;28;20214;-83
2021/03/14 03:56:07;;;;;;;5.50;2.30;;;;;;;;;;5010432;28;20183;-83
2021/03/14 03:58:34;;;;;;;7.85;2.05;;;;;;;;;;4996749;28;20210;-84
2021/03/14 04:01:01;;;;;;;18.25;4.38;;;;;;;;;;4992084;28;20387;-81
2021/03/14 04:03:29;;;;;;;8.07;3.53;;;;;;;;;;4999028;28;20691;-80
2021/03/14 04:05:57;;;;;;;12.82;2.60;;;;;;;;;;4996801;28;20240;-84
2021/03/14 04:08:23;;;;;;;7.75;2.65;;;;;;;;;;4999607;28;20193;-80
2021/03/14 04:10:49;;;;;;;6.72;2.72;;;;;;;;;;5002422;28;20211;-83
2021/03/14 04:13:16;;;;;;;11.90;2.38;;;;;;;;;;4986419;28;20184;-82
2021/03/14 04:15:42;;;;;;;7.25;2.42;;;;;;;;;;4993887;28;20160;-81
2021/03/14 04:18:09;;;;;;;5.75;2.50;;;;;;;;;;4996165;28;20183;-86
2021/03/14 04:20:37;;;;;;;14.15;3.08;;;;;;;;;;5002909;28;20187;-84
2021/03/14 04:23:06;;;;;;;12.95;2.92;;;;;;;;;;5002327;28;20214;-85
2021/03/14 04:25:32;;;;;;;11.15;2.70;;;;;;;;;;4997718;28;20227;-84
2021/03/14 04:27:59;;;;;;;9.27;2.80;;;;;;;;;;4991789;28;20203;-84
2021/03/14 04:30:26;;;;;;;20.73;3.50;;;;;;;;;;5004264;28;20282;-85
2021/03/14 04:32:53;;;;;;;11.48;2.22;;;;;;;;;;5001254;28;20256;-85
2021/03/14 04:35:20;;;;;;;19.63;2.75;;;;;;;;;;4999761;28;20183;-82
2021/03/14 04:37:46;;;;;;;8.68;3.10;;;;;;;;;;4997631;28;20222;-84
2021/03/14 04:40:13;;;;;;;23.70;3.22;;;;;;;;;;4988753;28;20183;-84
2021/03/14 04:42:41;;;;;;;7.95;2.55;;;;;;;;;;4998076;28;20175;-84
2021/03/14 04:45:07;;;;;;;11.90;3.65;;;;;;;;;;4998889;28;20644;-83
2021/03/14 04:47:34;;;;;;;9.25;2.63;;;;;;;;;;5002777;28;20254;-85
2021/03/14 04:50:00;;;;;;;12.63;2.88;;;;;;;;;;4999984;28;20211;-85
2021/03/14 04:52:26;;;;;;;10.57;1.90;;;;;;;;;;4997318;28;20649;-85
2021/03/14 04:54:52;;;;;;;9.25;2.30;;;;;;;;;;5000023;28;20640;-85
2021/03/14 04:57:19;;;;;;;14.50;3.15;;;;;;;;;;5000598;28;20933;-81
2021/03/14 04:59:45;;;;;;;6.78;3.03;;;;;;;;;;5002089;28;20191;-84
2021/03/14 05:02:15;;;;;;;9.82;2.40;;;;;;;;;;5010457;28;20189;-86
2021/03/14 05:04:44;;;;;;;13.10;3.15;;;;;;;;;;4996520;28;20187;-85
2021/03/14 05:07:14;;;;;;;12.23;4.13;;;;;;;;;;4988992;28;20190;-85
2021/03/14 05:09:41;;;;;;;9.65;2.40;;;;;;;;;;4996117;28;20179;-82
2021/03/14 05:12:08;;;;;;;10.02;2.80;;;;;;;;;;4994346;28;20187;-86
2021/03/14 05:14:35;;;;;;;12.27;2.47;;;;;;;;;;5003462;28;20186;-85
2021/03/14 05:17:02;;;;;;;11.10;2.60;;;;;;;;;;5000170;28;20194;-84
2021/03/14 05:19:28;;;;;;;16.00;3.90;;;;;;;;;;4996593;28;20194;-85
2021/03/14 05:21:54;;;;;;;10.40;2.30;;;;;;;;;;4999166;28;20629;-81
2021/03/14 05:24:20;;;;;;;10.70;2.60;;;;;;;;;;4991787;28;20188;-84
2021/03/14 05:26:46;;;;;;;9.38;2.92;;;;;;;;;;4990690;28;20199;-82
2021/03/14 05:29:13;;;;;;;12.90;2.30;;;;;;;;;;5008150;28;20329;-81
2021/03/14 05:31:39;;;;;;;10.68;2.30;;;;;;;;;;5007435;28;20602;-85
2021/03/14 05:34:08;;;;;;;7.10;2.85;;;;;;;;;;5009074;28;20174;-84
2021/03/14 05:36:34;;;;;;;12.45;2.25;;;;;;;;;;4995982;28;20603;-84
2021/03/14 05:39:01;;;;;;;13.98;2.42;;;;;;;;;;4995483;28;20242;-84
2021/03/14 05:41:28;;;;;;;8.27;2.83;;;;;;;;;;4998094;28;20188;-84
2021/03/14 05:43:54;;;;;;;9.35;3.10;;;;;;;;;;4999909;28;20192;-81
2021/03/14 05:46:22;;;;;;;7.07;2.10;;;;;;;;;;4999452;28;20183;-82
2021/03/14 05:48:48;;;;;;;8.30;1.90;;;;;;;;;;4993123;28;20222;-84
2021/03/14 05:51:37;;;;;;;9.57;2.70;;;;;;;;;;4993832;28;20206;-84
2021/03/14 05:54:03;;;;;;;8.25;2.50;;;;;;;;;;4982597;28;20226;-84
2021/03/14 05:56:31;;;;;;;11.55;2.60;;;;;;;;;;4983322;28;20183;-82
2021/03/14 05:58:58;;;;;;;10.18;2.83;;;;;;;;;;4999437;28;20711;-85
2021/03/14 06:01:29;;;;;;;10.57;2.75;;;;;;;;;;4985113;28;20190;-84
2021/03/14 06:03:56;;;;;;;15.32;2.88;;;;;;;;;;4998927;28;20175;-79
2021/03/14 06:06:22;;;;;;;13.73;3.38;;;;;;;;;;4983110;28;20210;-84
2021/03/14 06:08:48;;;;;;;13.88;3.05;;;;;;;;;;4996723;28;20196;-83
2021/03/14 06:11:14;;;;;;;12.25;3.75;;;;;;;;;;5007898;28;20265;-83
2021/03/14 06:13:40;;;;;;;14.35;4.30;;;;;;;;;;4997832;28;20191;-82
2021/03/14 06:16:07;;;;;;;9.52;3.45;;;;;;;;;;4986133;28;20180;-80
2021/03/14 06:18:34;;;;;;;10.77;2.60;;;;;;;;;;5003461;28;20684;-83
2021/03/14 06:21:01;;;;;;;10.13;2.67;;;;;;;;;;4998747;28;20202;-84
2021/03/14 06:23:27;;;;;;;9.23;3.15;;;;;;;;;;4999501;28;20191;-81
2021/03/14 06:25:57;;;;;;;11.45;2.92;;;;;;;;;;5001847;28;20233;-80
2021/03/14 06:28:36;;;;;;;15.43;5.07;;;;;;;;;;5004847;28;20198;-82
2021/03/14 06:31:17;;;;;;;13.60;3.20;;;;;;;;;;5003437;28;20199;-78
2021/03/14 06:33:44;;;;;;;6.65;2.55;;;;;;;;;;5001162;28;20541;-82
2021/03/14 06:36:14;;;;;;;11.85;3.28;;;;;;;;;;4983207;28;20214;-84
2021/03/14 06:38:40;;;;;;;10.82;5.15;;;;;;;;;;5001093;28;20176;-84
2021/03/14 06:41:06;;;;;;;12.10;3.70;;;;;;;;;;5003268;28;20244;-83
2021/03/14 06:43:32;;;;;;;11.73;2.87;;;;;;;;;;4992026;28;20197;-85
2021/03/14 06:45:59;;;;;;;6.70;2.38;;;;;;;;;;4985833;28;20422;-83
2021/03/14 06:48:26;;;;;;;12.25;2.78;;;;;;;;;;5004111;28;20227;-79
2021/03/14 06:50:52;;;;;;;13.00;3.60;;;;;;;;;;4999361;28;20220;-83
2021/03/14 06:53:19;;;;;;;8.40;2.60;;;;;;;;;;5011039;28;20541;-80
2021/03/14 06:55:46;;;;;;;13.63;3.10;;;;;;;;;;4999582;28;20553;-81
2021/03/14 06:58:25;;;;;;;11.18;4.03;;;;;;;;;;5000021;28;20175;-83
2021/03/14 07:01:06;;;;;;;16.05;3.28;;;;;;;;;;5001439;28;20234;-84
2021/03/14 07:03:32;;;;;;;15.07;3.22;;;;;;;;;;4999605;28;20187;-82
2021/03/14 07:06:15;;;;;;;10.63;3.58;;;;;;;;;;4996883;28;20188;-83
2021/03/14 07:08:41;;;;;;;11.80;2.60;;;;;;;;;;4998623;28;20336;-82
2021/03/14 07:11:08;;;;;;;9.32;2.97;;;;;;;;;;4998523;28;20242;-85
2021/03/14 07:13:37;;;;;;;13.23;3.13;;;;;;;;;;5002865;28;20191;-83
2021/03/14 07:16:04;;;;;;;13.48;3.95;;;;;;;;;;4989696;28;20184;-85
2021/03/14 07:18:30;;;;;;;12.00;3.78;;;;;;;;;;4991052;28;20182;-85
2021/03/14 07:20:56;;;;;;;10.90;3.40;;;;;;;;;;4981281;28;20254;-82
2021/03/14 07:23:32;;;;;;;15.07;4.50;;;;;;;;;;5002541;28;20190;-78
2021/03/14 07:25:59;;;;;;;15.60;3.28;;;;;;;;;;5001113;28;20207;-83
2021/03/14 07:28:25;;;;;;;12.13;3.70;;;;;;;;;;4985185;28;20200;-84
2021/03/14 07:30:51;;;;;;;12.65;4.07;;;;;;;;;;4995795;28;20253;-82
2021/03/14 07:33:18;;;;;;;14.27;3.15;;;;;;;;;;4996536;28;20187;-80
2021/03/14 07:35:45;;;;;;;10.70;3.22;;;;;;;;;;4996375;28;20232;-83
2021/03/14 07:38:11;;;;;;;6.75;2.70;;;;;;;;;;5000699;28;20194;-83
2021/03/14 07:40:37;;;;;;;11.90;2.80;;;;;;;;;;4978331;28;20662;-86
2021/03/14 07:43:04;;;;;;;8.85;2.80;;;;;;;;;;5005461;28;20198;-81
2021/03/14 07:45:31;;;;;;;14.00;3.80;;;;;;;;;;4991128;28;20223;-81
2021/03/14 07:47:57;;;;;;;11.48;3.75;;;;;;;;;;4998815;28;20231;-82
2021/03/14 07:50:26;;;;;;;12.88;2.80;;;;;;;;;;5010257;28;20206;-84
2021/03/14 07:52:53;;;;;;;9.18;2.25;;;;;;;;;;5002720;28;20187;-84
2021/03/14 07:55:20;;;;;;;8.32;3.50;;;;;;;;;;4977731;28;20183;-83
2021/03/14 07:57:47;;;;;;;10.02;3.50;;;;;;;;;;5004047;28;20190;-83
2021/03/14 08:00:33;;;;;;;7.50;3.50;;;;;;;;;;5003690;28;20202;-82
2021/03/14 08:03:02;;;;;;;10.73;2.90;;;;;;;;;;5002442;28;20253;-82
2021/03/14 08:05:37;;;;;;;12.15;4.40;;;;;;;;;;5003548;28;20234;-79
2021/03/14 08:08:04;;;;;;;15.90;3.38;;;;;;;;;;5004818;28;20258;-82
2021/03/14 08:10:33;;;;;;;19.33;2.90;;;;;;;;;;4988100;28;20221;-82
2021/03/14 08:12:59;;;;;;;11.10;3.10;;;;;;;;;;5008544;28;20224;-82
2021/03/14 08:15:29;;;;;;;18.38;3.75;;;;;;;;;;5002980;28;20260;-77
2021/03/14 08:17:58;;;;;;;17.08;4.00;;;;;;;;;;4978542;28;20199;-80
2021/03/14 08:20:40;;;;;;;12.15;3.20;;;;;;;;;;5004460;28;20189;-83
2021/03/14 08:23:08;;;;;;;13.90;4.15;;;;;;;;;;4991658;28;20179;-78
2021/03/14 08:25:44;;;;;;;10.35;2.88;;;;;;;;;;4996866;28;20183;-78
2021/03/14 08:28:30;;;;;;;10.30;3.00;;;;;;;;;;4997964;28;20189;-81
2021/03/14 08:30:57;;;;;;;11.93;4.05;;;;;;;;;;5000332;28;20535;-83
2021/03/14 08:33:26;;;;;;;18.48;4.45;;;;;;;;;;5004760;28;20180;-76
2021/03/14 08:36:04;;;;;;;10.25;2.65;;;;;;;;;;5001551;28;20183;-79
2021/03/14 08:38:45;;;;;;;15.23;4.38;;;;;;;;;;4992990;28;20191;-80
2021/03/14 08:41:18;;;;;;;13.25;3.28;;;;;;;;;;4991091;28;20194;-77
2021/03/14 08:43:44;;;;;;;10.25;3.15;;;;;;;;;;5001175;28;20357;-79
2021/03/14 08:46:10;;;;;;;15.27;4.63;;;;;;;;;;4986253;28;20176;-82
2021/03/14 08:48:37;;;;;;;11.65;4.47;;;;;;;;;;4998670;28;20313;-80
2021/03/14 08:51:08;;;;;;;14.45;3.70;;;;;;;;;;4993193;28;20213;-83
2021/03/14 08:53:34;;;;;;;8.35;3.60;;;;;;;;;;4989757;28;20188;-81
2021/03/14 08:56:00;;;;;;;10.90;3.42;;;;;;;;;;5000100;28;20202;-81
2021/03/14 08:58:27;;;;;;;14.35;4.30;;;;;;;;;;4995391;28;20195;-79
2021/03/14 09:01:02;;;;;;;13.25;4.38;;;;;;;;;;5003568;28;20179;-81
2021/03/14 09:03:29;;;;;;;17.17;3.65;;;;;;;;;;4997256;28;20280;-80
2021/03/14 09:06:10;;;;;;;12.68;4.07;;;;;;;;;;4999882;28;20197;-79
2021/03/14 09:08:36;;;;;;;12.00;3.08;;;;;;;;;;4982775;28;20187;-80
2021/03/14 09:11:02;;;;;;;12.38;3.60;;;;;;;;;;4983810;28;20281;-80
2021/03/14 09:13:28;;;;;;;12.88;3.85;;;;;;;;;;5012574;28;20658;-79
2021/03/14 09:15:54;;;;;;;13.77;4.20;;;;;;;;;;5002928;28;20198;-78
2021/03/14 09:18:24;;;;;;;12.27;3.00;;;;;;;;;;4973988;28;20798;-81
2021/03/14 09:21:00;;;;;;;10.07;3.55;;;;;;;;;;4993317;28;20920;-80
2021/03/14 09:23:26;;;;;;;12.02;3.83;;;;;;;;;;4988282;28;20215;-82
2021/03/14 09:25:53;;;;;;;12.27;4.03;;;;;;;;;;4999930;28;20199;-80
2021/03/14 09:28:19;;;;;;;8.85;3.97;;;;;;;;;;5001973;28;20187;-81
2021/03/14 09:30:45;;;;;;;5.43;3.43;;;;;;;;;;4995747;28;20213;-79
2021/03/14 09:33:12;;;;;;;13.75;3.30;;;;;;;;;;5000595;28;20489;-81
2021/03/14 09:35:40;;;;;;;14.90;4.40;;;;;;;;;;5000476;28;20183;-79
2021/03/14 09:38:10;;;;;;;19.00;4.70;;;;;;;;;;5001776;28;20189;-79
2021/03/14 09:40:37;;;;;;;16.38;3.90;;;;;;;;;;4987526;28;20190;-79
2021/03/14 09:43:03;;;;;;;19.50;3.30;;;;;;;;;;5008784;28;20213;-78
2021/03/14 09:45:30;;;;;;;14.52;4.60;;;;;;;;;;4996295;28;20175;-78
2021/03/14 09:48:16;;;;;;;10.55;3.85;;;;;;;;;;4995527;28;20395;-77
2021/03/14 09:50:52;;;;;;;15.45;4.13;;;;;;;;;;4995204;28;20225;-78
2021/03/14 09:53:19;;;;;;;14.25;4.35;;;;;;;;;;4989754;28;20178;-80
2021/03/14 09:55:46;;;;;;;8.85;3.00;;;;;;;;;;4997808;28;20188;-77
2021/03/14 09:58:14;;;;;;;11.52;4.57;;;;;;;;;;4989391;28;20194;-78
2021/03/14 10:00:40;;;;;;;9.85;3.38;;;;;;;;;;4995929;28;20290;-79
2021/03/14 10:03:08;;;;;;;10.63;3.58;;;;;;;;;;4998041;28;20194;-78
2021/03/14 10:05:44;;;;;;;8.18;3.50;;;;;;;;;;5003634;28;20266;-81
2021/03/14 10:08:10;;;;;;;14.48;3.42;;;;;;;;;;5003937;28;20186;-80
2021/03/14 10:10:37;;;;;;;8.13;3.45;;;;;;;;;;5003594;28;20199;-82
2021/03/14 10:13:07;;;;;;;9.85;2.67;;;;;;;;;;5002086;28;20175;-81
2021/03/14 10:15:33;;;;;;;12.52;3.17;;;;;;;;;;4995842;28;20172;-81
2021/03/14 10:17:59;;;;;;;7.25;2.65;;;;;;;;;;4997748;28;20188;-81
2021/03/14 10:20:26;;;;;;;12.63;3.30;;;;;;;;;;5007710;28;20202;-81
2021/03/14 10:22:59;;;;;;;7.15;2.90;;;;;;;;;;5001686;28;20692;-82
2021/03/14 10:25:26;;;;;;;9.55;2.20;;;;;;;;;;5000037;28;20266;-81
2021/03/14 10:27:52;;;;;;;8.98;3.00;;;;;;;;;;5000749;28;20183;-81
2021/03/14 10:30:19;;;;;;;6.03;1.85;;;;;;;;;;4982679;28;20274;-78
2021/03/14 10:32:48;;;;;;;9.23;2.53;;;;;;;;;;4998302;28;20195;-81
2021/03/14 10:35:14;;;;;;;14.27;3.88;;;;;;;;;;5002712;28;20201;-81
2021/03/14 10:37:42;;;;;;;9.77;2.70;;;;;;;;;;5000369;28;20211;-81
2021/03/14 10:40:21;;;;;;;6.72;2.17;;;;;;;;;;5001680;28;20235;-80
2021/03/14 10:42:48;;;;;;;7.13;1.92;;;;;;;;;;5000524;28;20179;-80
2021/03/14 10:45:15;;;;;;;7.32;1.73;;;;;;;;;;4997836;28;20205;-81
2021/03/14 10:47:42;;;;;;;11.35;2.05;;;;;;;;;;4986192;28;20249;-82
2021/03/14 10:50:21;;;;;;;8.15;2.78;;;;;;;;;;5003769;28;20262;-80
2021/03/14 10:53:06;;;;;;;5.55;2.10;;;;;;;;;;5000713;28;20359;-79
2021/03/14 10:55:34;;;;;;;9.30;2.38;;;;;;;;;;4999532;28;20240;-78
2021/03/14 10:58:08;;;;;;;7.00;2.63;;;;;;;;;;5007880;28;20194;-82
2021/03/14 11:00:34;;;;;;;4.30;2.13;;;;;;;;;;4987752;28;20171;-78
2021/03/14 11:03:09;;;;;;;5.50;2.90;;;;;;;;;;4998184;28;20324;-78
2021/03/14 11:05:35;;;;;;;10.85;2.25;;;;;;;;;;5003710;28;20209;-78
2021/03/14 11:08:02;;;;;;;6.93;1.88;;;;;;;;;;5003599;28;20696;-78
2021/03/14 11:10:28;;;;;;;6.75;2.10;;;;;;;;;;4987074;28;20296;-79
2021/03/14 11:12:54;;;;;;;7.07;1.70;;;;;;;;;;5001086;28;20179;-78
2021/03/14 11:15:21;;;;;;;5.05;2.20;;;;;;;;;;4998001;28;20175;-79
2021/03/14 11:17:47;;;;;;;6.25;2.00;;;;;;;;;;5002612;28;20191;-78
2021/03/14 11:20:13;;;;;;;6.47;2.50;;;;;;;;;;5001567;28;20229;-79
2021/03/14 11:22:39;;;;;;;8.07;2.28;;;;;;;;;;4999184;28;20183;-80
2021/03/14 11:25:06;;;;;;;5.57;2.20;;;;;;;;;;5001085;28;20190;-80
2021/03/14 11:27:32;;;;;;;4.95;2.10;;;;;;;;;;4994279;28;20415;-79
2021/03/14 11:29:58;;;;;;;4.25;2.50;;;;;;;;;;4996588;28;20628;-80
2021/03/14 11:32:25;;;;;;;5.43;2.38;;;;;;;;;;4982777;28;20594;-79
2021/03/14 11:34:51;;;;;;;4.65;1.95;;;;;;;;;;5001063;28;20180;-80
2021/03/14 11:37:17;;;;;;;2.58;1.42;;;;;;;;;;5002135;28;20230;-82
2021/03/14 11:39:43;;;;;;;4.50;2.07;;;;;;;;;;5002029;28;20194;-80
2021/03/14 11:42:10;;;;;;;7.70;2.75;;;;;;;;;;5001308;28;20493;-80
2021/03/14 11:44:36;;;;;;;5.85;2.15;;;;;;;;;;5002847;28;20179;-78
2021/03/14 11:47:02;;;;;;;4.88;2.38;;;;;;;;;;5000686;28;20191;-79
2021/03/14 11:49:29;;;;;;;2.92;2.00;;;;;;;;;;5002694;28;20247;-79
2021/03/14 11:51:55;;;;;;;5.18;2.08;;;;;;;;;;5002939;28;20215;-78
2021/03/14 11:54:21;;;;;;;6.20;2.78;;;;;;;;;;4997188;28;20652;-79
2021/03/14 11:56:47;;;;;;;5.00;2.45;;;;;;;;;;5001405;28;20191;-80
2021/03/14 11:59:13;;;;;;;3.55;2.10;;;;;;;;;;4985363;28;20199;-81
2021/03/14 12:01:40;;;;;;;4.85;1.92;;;;;;;;;;4998301;28;20188;-81
2021/03/14 12:04:06;;;;;;;4.40;1.95;;;;;;;;;;4990846;28;20187;-79
2021/03/14 12:06:33;;;;;;;4.05;1.55;;;;;;;;;;5005093;28;20213;-79
2021/03/14 12:08:59;;;;;;;3.97;1.85;;;;;;;;;;5001884;28;20218;-81
2021/03/14 12:11:25;;;;;;;4.55;1.60;;;;;;;;;;5001857;28;20704;-80
2021/03/14 12:13:51;;;;;;;3.17;1.80;;;;;;;;;;5004980;28;20198;-79
2021/03/14 12:16:17;;;;;;;5.32;1.65;;;;;;;;;;4999335;28;20187;-80
2021/03/14 12:18:43;;;;;;;5.32;1.70;;;;;;;;;;4998507;28;20199;-79
2021/03/14 12:21:10;;;;;;;4.90;1.20;;;;;;;;;;5003447;28;20653;-79
2021/03/14 12:23:36;;;;;;;4.95;1.65;;;;;;;;;;4998681;28;20180;-81
2021/03/14 12:26:06;;;;;;;2.65;1.23;;;;;;;;;;5001317;28;20233;-79
2021/03/14 12:28:32;;;;;;;3.28;1.45;;;;;;;;;;4978840;28;20195;-80
2021/03/14 12:30:58;;;;;;;1.98;1.63;;;;;;;;;;5000915;28;20223;-79
2021/03/14 12:33:24;;;;;;;5.32;1.70;;;;;;;;;;5001017;28;20248;-82
2021/03/14 12:35:51;;;;;;;5.28;1.80;;;;;;;;;;5000696;28;20183;-81
2021/03/14 12:38:17;;;;;;;6.40;1.58;;;;;;;;;;4983071;28;20662;-79
2021/03/14 12:40:46;;;;;;;4.93;2.08;;;;;;;;;;5000701;28;20677;-83
2021/03/14 12:43:16;;;;;;;2.80;1.70;;;;;;;;;;4998661;28;20172;-80
2021/03/14 12:45:42;;;;;;;2.43;2.03;;;;;;;;;;4997665;28;20182;-79
2021/03/14 12:48:09;;;;;;;2.53;1.67;;;;;;;;;;4995975;28;20550;-79
2021/03/14 12:50:35;;;;;;;3.00;1.73;;;;;;;;;;4999201;28;21075;-80
2021/03/14 12:53:01;;;;;;;10.47;5.40;;;;;;;;;;5000742;28;20439;-79
2021/03/14 12:55:27;;;;;;;4.43;3.20;;;;;;;;;;4984536;28;20533;-80
2021/03/14 12:57:53;;;;;;;4.00;2.00;;;;;;;;;;4994245;28;20417;-77
2021/03/14 13:00:20;;;;;;;2.80;1.80;;;;;;;;;;4981959;28;20470;-75
2021/03/14 13:02:46;;;;;;;4.00;1.90;;;;;;;;;;4995240;28;20516;-75
2021/03/14 13:05:13;;;;;;;4.23;2.10;;;;;;;;;;5000320;28;20931;-78
2021/03/14 13:07:38;;;;;;;4.40;2.17;;;;;;;;;;5001091;28;20532;-80
2021/03/14 13:10:05;;;;;;;6.40;3.57;;;;;;;;;;5002169;28;20440;-78
2021/03/14 13:12:31;;;;;;;5.63;1.90;;;;;;;;;;5000427;28;20397;-76
2021/03/14 13:14:57;;;;;;;5.70;2.92;;;;;;;;;;4995125;28;20762;-76
2021/03/14 13:17:23;;;;;;;2.72;1.65;;;;;;;;;;5001741;28;20204;-79
2021/03/14 13:19:49;;;;;;;5.72;1.88;;;;;;;;;;5001482;28;20206;-74
2021/03/14 13:22:16;;;;;;;4.33;2.40;;;;;;;;;;4990814;28;20235;-77
2021/03/14 13:24:42;;;;;;;6.13;2.10;;;;;;;;;;4999842;28;20464;-76
2021/03/14 13:27:09;;;;;;;6.65;2.38;;;;;;;;;;4997267;28;20359;-78
2021/03/14 13:29:34;;;;;;;5.05;2.60;;;;;;;;;;5000502;28;20645;-80
2021/03/14 13:32:00;;;;;;;4.23;1.83;;;;;;;;;;4998516;28;20213;-75
2021/03/14 13:34:26;;;;;;;5.18;2.80;;;;;;;;;;4983302;28;20496;-78
2021/03/14 13:36:53;;;;;;;4.32;2.13;;;;;;;;;;4998948;28;20176;-79
2021/03/14 13:39:19;;;;;;;6.53;2.47;;;;;;;;;;4996343;28;20195;-84
2021/03/14 13:41:45;;;;;;;3.78;2.10;;;;;;;;;;5000667;28;20196;-80
2021/03/14 13:44:11;;;;;;;4.25;1.55;;;;;;;;;;4995493;28;20189;-79
2021/03/14 13:46:37;;;;;;;4.60;2.30;;;;;;;;;;4998588;28;20194;-79
2021/03/14 13:49:03;;;;;;;5.78;2.10;;;;;;;;;;4986494;28;20556;-78
2021/03/14 13:51:29;;;;;;;8.27;2.93;;;;;;;;;;5002734;28;20210;-78
2021/03/14 13:53:55;;;;;;;6.30;1.55;;;;;;;;;;4994316;28;20851;-80
2021/03/14 13:56:21;;;;;;;6.75;2.00;;;;;;;;;;4982087;28;20175;-78
2021/03/14 13:58:47;;;;;;;3.55;1.92;;;;;;;;;;4996408;28;20196;-80
2021/03/14 14:01:14;;;;;;;6.65;2.08;;;;;;;;;;5000021;28;20191;-80
2021/03/14 14:03:40;;;;;;;5.38;2.72;;;;;;;;;;5003641;28;20198;-80
2021/03/14 14:06:06;;;;;;;6.53;1.80;;;;;;;;;;5000133;28;20219;-80
2021/03/14 14:08:33;;;;;;;5.00;1.80;;;;;;;;;;4996774;28;20280;-77
2021/03/14 14:10:59;;;;;;;6.32;2.22;;;;;;;;;;5000533;28;20694;-79
2021/03/14 14:13:25;;;;;;;7.95;2.35;;;;;;;;;;4984400;28;20195;-79
2021/03/14 14:15:56;;;;;;;4.32;2.20;;;;;;;;;;5002559;28;20246;-81
2021/03/14 14:18:22;;;;;;;3.97;2.38;;;;;;;;;;4998888;28;20193;-79
2021/03/14 14:20:48;;;;;;;3.95;1.98;;;;;;;;;;4984007;28;20599;-81
2021/03/14 14:23:14;;;;;;;4.60;2.00;;;;;;;;;;5000112;28;20217;-81
2021/03/14 14:25:40;;;;;;;6.20;2.78;;;;;;;;;;5000267;28;20470;-82
2021/03/14 14:28:06;;;;;;;4.53;3.13;;;;;;;;;;5000263;28;20186;-80
2021/03/14 14:30:32;;;;;;;3.75;1.90;;;;;;;;;;5001028;28;20195;-80
2021/03/14 14:32:58;;;;;;;4.13;2.20;;;;;;;;;;4999875;28;20190;-80
2021/03/14 14:35:24;;;;;;;4.03;1.98;;;;;;;;;;5000169;28;20175;-79
2021/03/14 14:37:51;;;;;;;5.20;1.67;;;;;;;;;;4999715;28;20202;-77
2021/03/14 14:40:17;;;;;;;5.72;3.00;;;;;;;;;;4985413;28;20229;-80